Time;durP1;ratioP1;P1;durP2;ratioP2;P2;SDS_P1;SDS_P2;PMS_P1;PMS_P2;Temp;Humidity;BMP_temperature;BMP_pressure;BME280_temperature;BME280_humidity;BME280_pressure;Samples;Min_cycle;Max_cycle;Signal;HPM_P1;HPM_P2
2022/06/15 00:00:40;;;;;;;4.13;3.72;;;;;;;19.90;49.00;95804.19;5079376;28;20580;-83
2022/06/15 00:03:06;;;;;;;5.35;3.72;;;;;;;19.97;48.15;95794.41;5078958;28;20258;-83
2022/06/15 00:05:34;;;;;;;5.90;3.92;;;;;;;19.83;48.88;95787.81;5079684;28;20288;-82
2022/06/15 00:08:00;;;;;;;7.10;3.70;;;;;;;19.81;49.29;95788.06;5078647;28;20201;-82
2022/06/15 00:10:27;;;;;;;5.18;3.80;;;;;;;19.79;49.50;95786.72;5078011;28;20204;-82
2022/06/15 00:12:53;;;;;;;4.10;3.33;;;;;;;19.77;49.28;95788.75;5078831;28;20299;-82
2022/06/15 00:15:20;;;;;;;4.57;3.92;;;;;;;19.74;49.69;95786.59;5079442;28;20263;-82
2022/06/15 00:17:46;;;;;;;6.57;3.80;;;;;;;19.72;49.88;95784.19;5080773;28;20221;-80
2022/06/15 00:20:13;;;;;;;4.50;3.78;;;;;;;19.73;49.67;95787.59;5080941;28;20205;-80
2022/06/15 00:22:41;;;;;;;5.20;3.88;;;;;;;19.73;49.48;95787.59;5080766;28;20252;-80
2022/06/15 00:25:08;;;;;;;3.90;3.53;;;;;;;19.69;49.71;95784.66;5081513;28;20629;-80
2022/06/15 00:27:35;;;;;;;4.38;3.97;;;;;;;19.75;49.64;95772.50;5081343;28;20197;-80
2022/06/15 00:30:01;;;;;;;3.97;3.58;;;;;;;19.74;49.58;95774.31;5080462;28;20200;-79
2022/06/15 00:32:27;;;;;;;5.68;3.40;;;;;;;19.71;49.98;95779.19;5081019;28;20232;-80
2022/06/15 00:34:56;;;;;;;5.40;3.88;;;;;;;19.76;49.61;95777.50;5081505;28;20204;-78
2022/06/15 00:37:23;;;;;;;5.20;4.15;;;;;;;19.69;50.21;95778.63;5081346;28;20263;-80
2022/06/15 00:39:50;;;;;;;4.95;3.83;;;;;;;19.64;49.89;95782.72;5081127;28;20227;-80
2022/06/15 00:42:17;;;;;;;4.63;3.85;;;;;;;19.69;49.69;95774.19;5080054;28;20228;-80
2022/06/15 00:44:44;;;;;;;4.88;4.22;;;;;;;19.72;49.90;95773.75;5079950;28;20197;-79
2022/06/15 00:47:17;;;;;;;4.25;3.85;;;;;;;19.63;50.10;95773.28;5080681;28;20247;-81
2022/06/15 00:49:48;;;;;;;4.20;3.80;;;;;;;19.58;50.46;95767.19;5081665;28;20204;-80
2022/06/15 00:52:17;;;;;;;5.90;3.70;;;;;;;19.53;50.33;95769.66;5079688;28;20232;-78
2022/06/15 00:54:46;;;;;;;4.95;4.20;;;;;;;19.50;50.47;95772.72;5080921;28;20224;-80
2022/06/15 00:57:14;;;;;;;4.43;3.97;;;;;;;19.49;50.64;95768.50;5080993;28;20217;-80
2022/06/15 00:59:47;;;;;;;5.75;4.20;;;;;;;19.44;50.85;95771.00;5081069;28;20200;-80
2022/06/15 01:02:13;;;;;;;4.72;4.07;;;;;;;19.40;51.07;95762.84;5079389;28;20232;-80
2022/06/15 01:04:46;;;;;;;4.40;3.97;;;;;;;19.33;51.54;95760.34;5080689;28;20212;-80
2022/06/15 01:07:26;;;;;;;4.88;4.07;;;;;;;19.33;51.13;95754.31;5081505;28;20720;-80
2022/06/15 01:10:01;;;;;;;4.28;3.88;;;;;;;19.33;51.54;95751.69;5080790;28;20261;-79
2022/06/15 01:12:36;;;;;;;4.78;4.20;;;;;;;19.28;51.75;95754.19;5080834;28;20286;-80
2022/06/15 01:15:13;;;;;;;6.53;3.80;;;;;;;19.18;51.82;95749.53;5080446;28;20275;-80
2022/06/15 01:17:52;;;;;;;4.47;3.92;;;;;;;19.20;51.45;95751.94;5080791;28;20220;-80
2022/06/15 01:20:37;;;;;;;4.75;4.22;;;;;;;19.25;51.90;95746.81;5079909;28;20231;-81
2022/06/15 01:23:33;;;;;;;5.22;4.15;;;;;;;19.26;51.83;95748.41;5079263;28;20946;-80
2022/06/15 01:26:18;;;;;;;4.70;4.30;;;;;;;19.07;52.32;95747.69;5079847;28;20201;-80
2022/06/15 01:28:49;;;;;;;4.57;3.97;;;;;;;19.04;52.12;95747.38;5079808;28;20197;-80
2022/06/15 01:31:27;;;;;;;5.25;4.00;;;;;;;18.98;52.08;95742.03;5079329;28;20213;-80
2022/06/15 01:34:04;;;;;;;8.85;4.20;;;;;;;18.91;52.94;95740.53;5079080;28;20232;-80
2022/06/15 01:36:40;;;;;;;8.00;4.25;;;;;;;18.99;52.15;95745.44;5080008;28;20204;-80
2022/06/15 01:39:11;;;;;;;5.70;4.00;;;;;;;19.13;52.04;95746.81;5080191;28;20200;-80
2022/06/15 01:41:45;;;;;;;4.50;4.10;;;;;;;19.17;52.19;95747.16;5079112;28;20220;-80
2022/06/15 01:44:16;;;;;;;5.22;4.03;;;;;;;19.24;52.31;95742.63;5059461;28;20244;-80
2022/06/15 01:46:46;;;;;;;5.43;3.97;;;;;;;19.26;51.93;95743.97;5059856;28;20209;-80
2022/06/15 01:49:18;;;;;;;7.35;4.35;;;;;;;19.19;52.18;95745.91;5058489;28;20202;-83
2022/06/15 01:51:45;;;;;;;5.07;4.03;;;;;;;19.09;52.22;95747.47;5055892;28;20738;-83
2022/06/15 01:54:17;;;;;;;6.10;4.40;;;;;;;19.01;52.12;95740.78;5056375;28;20217;-83
2022/06/15 01:56:46;;;;;;;5.85;4.55;;;;;;;18.94;52.97;95738.28;5055912;28;20227;-83
2022/06/15 01:59:17;;;;;;;5.47;4.68;;;;;;;18.84;53.25;95732.81;5055743;28;20302;-82
2022/06/15 02:01:51;;;;;;;5.50;4.43;;;;;;;18.68;53.82;95743.06;5055877;28;20278;-82
2022/06/15 02:04:27;;;;;;;4.82;4.32;;;;;;;18.59;54.24;95735.59;5055785;28;20247;-83
2022/06/15 02:07:04;;;;;;;4.80;4.40;;;;;;;18.55;54.40;95733.63;5055897;28;20205;-82
2022/06/15 02:09:40;;;;;;;5.70;4.25;;;;;;;18.45;54.54;95731.56;5056127;28;20263;-82
2022/06/15 02:12:09;;;;;;;5.38;4.00;;;;;;;18.48;54.56;95725.88;5054542;28;20240;-82
2022/06/15 02:14:41;;;;;;;4.57;3.78;;;;;;;18.49;54.38;95724.84;5055616;28;20661;-82
2022/06/15 02:17:14;;;;;;;5.03;4.30;;;;;;;18.41;55.27;95721.78;5056019;28;20225;-83
2022/06/15 02:19:46;;;;;;;4.60;4.15;;;;;;;18.44;54.90;95714.31;5055697;28;20204;-82
2022/06/15 02:22:17;;;;;;;6.43;4.28;;;;;;;18.40;55.07;95717.59;5054760;28;20700;-82
2022/06/15 02:24:47;;;;;;;5.05;4.43;;;;;;;18.30;55.24;95715.50;5056635;28;20267;-82
2022/06/15 02:27:15;;;;;;;6.35;4.57;;;;;;;18.32;55.20;95712.66;5056638;28;20197;-82
2022/06/15 02:29:46;;;;;;;4.95;4.35;;;;;;;18.40;55.31;95714.97;5056909;28;20201;-82
2022/06/15 02:32:17;;;;;;;5.03;4.25;;;;;;;18.52;55.20;95718.41;5035959;28;20256;-83
2022/06/15 02:34:44;;;;;;;7.38;4.40;;;;;;;18.56;54.92;95719.56;5037012;28;20268;-82
2022/06/15 02:37:12;;;;;;;4.90;4.30;;;;;;;18.63;55.12;95717.69;5037097;28;20229;-82
2022/06/15 02:39:38;;;;;;;5.72;4.70;;;;;;;18.65;54.14;95707.03;5036716;28;20194;-82
2022/06/15 02:42:24;;;;;;;5.35;4.30;;;;;;;18.64;54.83;95714.06;5034895;28;20272;-83
2022/06/15 02:44:53;;;;;;;8.50;4.50;;;;;;;18.60;54.70;95715.53;5036827;28;20206;-82
2022/06/15 02:47:23;;;;;;;5.82;4.30;;;;;;;18.58;54.46;95715.72;5037931;28;20202;-82
2022/06/15 02:49:51;;;;;;;5.50;4.50;;;;;;;18.55;54.60;95718.75;5040547;28;20252;-83
2022/06/15 02:52:20;;;;;;;5.95;4.35;;;;;;;18.58;54.81;95722.75;5039558;28;20606;-82
2022/06/15 02:54:50;;;;;;;5.72;4.22;;;;;;;18.57;54.69;95721.16;5040044;28;20742;-82
2022/06/15 02:57:18;;;;;;;6.68;4.60;;;;;;;18.56;54.56;95722.97;5040696;28;20249;-82
2022/06/15 02:59:46;;;;;;;4.43;4.03;;;;;;;18.50;55.32;95720.44;5040069;28;20232;-82
2022/06/15 03:02:14;;;;;;;6.50;4.30;;;;;;;18.40;55.13;95726.19;5037846;28;20226;-82
2022/06/15 03:04:42;;;;;;;4.88;4.07;;;;;;;18.29;55.81;95711.28;5054670;28;20227;-82
2022/06/15 03:07:10;;;;;;;6.07;4.80;;;;;;;18.20;55.87;95716.03;5057331;23;20234;-81
2022/06/15 03:09:37;;;;;;;5.25;4.40;;;;;;;18.20;55.89;95710.81;5013915;28;20203;-82
2022/06/15 03:12:04;;;;;;;6.75;4.35;;;;;;;18.03;56.61;95709.84;5013134;28;20617;-82
2022/06/15 03:14:31;;;;;;;4.88;4.10;;;;;;;18.02;56.57;95708.25;5014320;28;20207;-82
2022/06/15 03:16:57;;;;;;;6.13;4.30;;;;;;;17.94;56.68;95711.16;5013783;28;20762;-81
2022/06/15 03:19:24;;;;;;;5.63;4.75;;;;;;;17.90;56.68;95705.56;5013842;28;20222;-83
2022/06/15 03:21:52;;;;;;;5.30;4.35;;;;;;;17.90;56.92;95704.78;5012007;28;20745;-83
2022/06/15 03:24:20;;;;;;;4.63;4.22;;;;;;;17.80;57.28;95705.31;4994046;28;20250;-82
2022/06/15 03:26:48;;;;;;;5.82;4.70;;;;;;;17.70;57.93;95704.25;4994142;28;20286;-83
2022/06/15 03:29:15;;;;;;;4.70;4.25;;;;;;;17.72;57.18;95702.97;4993726;28;20238;-83
2022/06/15 03:31:41;;;;;;;10.52;4.60;;;;;;;17.77;57.68;95690.13;4993202;28;20675;-82
2022/06/15 03:34:07;;;;;;;4.68;4.20;;;;;;;17.89;57.25;95698.81;4993640;28;20297;-81
2022/06/15 03:36:34;;;;;;;4.82;4.35;;;;;;;17.91;57.27;95696.75;4994209;28;20223;-83
2022/06/15 03:39:01;;;;;;;4.53;4.13;;;;;;;17.94;56.73;95691.09;4993670;28;20699;-82
2022/06/15 03:41:28;;;;;;;5.88;4.45;;;;;;;17.91;56.97;95698.56;4993289;28;20204;-83
2022/06/15 03:43:55;;;;;;;6.00;4.55;;;;;;;17.78;57.67;95696.91;4993584;28;20231;-82
2022/06/15 03:46:23;;;;;;;6.40;4.40;;;;;;;17.86;56.99;95701.84;4993618;28;20294;-81
2022/06/15 03:48:49;;;;;;;4.60;4.05;;;;;;;17.96;57.12;95698.69;4993955;28;20230;-83
2022/06/15 03:51:15;;;;;;;4.75;4.35;;;;;;;17.97;57.20;95705.50;4993343;28;20196;-83
2022/06/15 03:53:42;;;;;;;6.18;4.10;;;;;;;17.99;57.42;95702.69;4993307;28;20250;-81
2022/06/15 03:56:10;;;;;;;6.72;4.70;;;;;;;17.93;57.41;95704.34;4993398;28;20274;-82
2022/06/15 03:58:36;;;;;;;5.45;4.95;;;;;;;17.91;57.47;95704.56;4993284;28;20235;-83
2022/06/15 04:01:03;;;;;;;4.90;4.50;;;;;;;17.89;57.69;95701.41;4993053;28;20258;-81
2022/06/15 04:03:29;;;;;;;5.57;4.78;;;;;;;17.80;57.92;95700.09;4993411;28;20318;-80
2022/06/15 04:05:58;;;;;;;5.13;4.43;;;;;;;17.82;57.88;95711.09;4993541;28;20277;-79
2022/06/15 04:08:36;;;;;;;5.57;4.35;;;;;;;17.86;57.83;95720.06;4993479;28;20199;-82
2022/06/15 04:11:03;;;;;;;6.35;4.78;;;;;;;17.99;57.58;95716.50;4993279;28;20203;-81
2022/06/15 04:13:31;;;;;;;7.20;4.80;;;;;;;17.98;57.93;95708.91;4992881;28;20964;-82
2022/06/15 04:15:57;;;;;;;5.78;5.18;;;;;;;17.83;58.77;95712.69;4993277;28;20211;-83
2022/06/15 04:18:24;;;;;;;5.40;4.90;;;;;;;17.94;58.26;95711.94;4993133;28;20226;-81
2022/06/15 04:20:50;;;;;;;6.68;4.65;;;;;;;17.91;58.64;95714.19;4992871;28;20207;-80
2022/06/15 04:23:19;;;;;;;5.45;4.72;;;;;;;17.91;58.65;95712.38;4992039;28;20235;-83
2022/06/15 04:25:51;;;;;;;7.95;5.05;;;;;;;17.88;59.12;95715.44;4993282;28;20203;-82
2022/06/15 04:28:20;;;;;;;5.10;4.60;;;;;;;17.83;59.27;95709.28;4992844;28;20227;-83
2022/06/15 04:30:47;;;;;;;8.77;4.35;;;;;;;17.93;59.71;95723.38;4992223;28;20211;-83
2022/06/15 04:33:15;;;;;;;5.07;4.57;;;;;;;17.89;60.08;95732.66;4992122;28;20282;-82
2022/06/15 04:35:42;;;;;;;5.15;4.70;;;;;;;18.06;59.29;95729.47;4993091;28;20230;-82
2022/06/15 04:38:09;;;;;;;5.72;5.28;;;;;;;18.11;58.42;95725.16;4992653;28;20231;-82
2022/06/15 04:40:37;;;;;;;8.10;5.18;;;;;;;18.21;58.13;95725.44;4992190;28;20605;-82
2022/06/15 04:43:04;;;;;;;7.50;5.60;;;;;;;18.07;59.03;95731.84;4991773;28;20654;-83
2022/06/15 04:45:31;;;;;;;6.03;5.40;;;;;;;17.99;59.73;95736.56;4992444;28;20203;-82
2022/06/15 04:47:59;;;;;;;7.03;5.18;;;;;;;18.12;58.72;95737.19;4992315;28;20746;-82
2022/06/15 04:50:26;;;;;;;6.32;4.63;;;;;;;18.16;58.28;95737.53;4991432;28;20270;-83
2022/06/15 04:52:52;;;;;;;7.32;5.15;;;;;;;18.37;57.66;95731.06;4992045;28;20281;-83
2022/06/15 04:55:21;;;;;;;6.75;4.95;;;;;;;18.53;57.47;95727.81;4992563;28;20679;-82
2022/06/15 04:57:53;;;;;;;5.97;4.75;;;;;;;18.64;57.32;95727.09;4992324;28;20286;-82
2022/06/15 05:00:20;;;;;;;5.65;4.70;;;;;;;18.67;57.42;95729.25;4991926;28;20235;-82
2022/06/15 05:02:46;;;;;;;6.50;4.95;;;;;;;18.75;57.16;95725.53;4991684;28;20289;-82
2022/06/15 05:05:14;;;;;;;5.18;4.68;;;;;;;18.63;58.05;95723.69;4992755;28;20552;-82
2022/06/15 05:07:41;;;;;;;5.28;4.50;;;;;;;18.68;56.99;95717.78;4992727;28;20230;-82
2022/06/15 05:10:12;;;;;;;5.05;4.63;;;;;;;18.69;56.82;95719.38;4991382;28;20204;-83
2022/06/15 05:12:38;;;;;;;4.90;4.50;;;;;;;18.67;57.00;95728.44;4992344;28;20238;-83
2022/06/15 05:15:05;;;;;;;5.32;4.43;;;;;;;18.83;57.38;95733.84;4992545;28;20204;-82
2022/06/15 05:17:32;;;;;;;5.47;4.40;;;;;;;18.95;57.09;95733.84;4992325;28;20250;-81
2022/06/15 05:19:58;;;;;;;4.35;3.95;;;;;;;18.99;56.63;95732.38;4992757;28;20568;-83
2022/06/15 05:22:26;;;;;;;4.82;4.32;;;;;;;19.13;56.53;95736.38;4991388;28;20242;-83
2022/06/15 05:24:53;;;;;;;6.82;4.43;;;;;;;19.18;56.07;95735.69;4992216;28;20218;-82
2022/06/15 05:27:19;;;;;;;4.10;3.75;;;;;;;19.19;56.53;95738.09;4992653;28;20710;-83
2022/06/15 05:29:46;;;;;;;10.05;4.20;;;;;;;19.23;55.89;95725.38;4991932;28;20207;-82
2022/06/15 05:32:12;;;;;;;6.00;4.50;;;;;;;19.23;55.95;95728.78;4991102;28;20234;-83
2022/06/15 05:34:38;;;;;;;4.50;3.97;;;;;;;19.23;56.03;95725.38;4992212;28;20211;-81
2022/06/15 05:37:05;;;;;;;4.10;3.80;;;;;;;19.25;56.27;95729.31;4992011;28;20234;-81
2022/06/15 05:39:33;;;;;;;5.07;4.10;;;;;;;19.36;55.38;95726.97;4991752;28;20274;-83
2022/06/15 05:41:59;;;;;;;6.68;4.30;;;;;;;19.37;55.92;95729.34;4990752;28;20265;-82
2022/06/15 05:44:29;;;;;;;4.47;3.85;;;;;;;19.54;55.80;95732.09;4992087;28;20655;-81
2022/06/15 05:46:57;;;;;;;4.93;3.78;;;;;;;19.47;55.91;95732.16;4992392;28;20219;-81
2022/06/15 05:49:24;;;;;;;5.03;4.05;;;;;;;19.44;55.39;95729.22;4991971;28;20226;-83
2022/06/15 05:51:50;;;;;;;8.38;4.43;;;;;;;19.57;55.95;95736.84;4990519;28;20199;-83
2022/06/15 05:54:17;;;;;;;8.75;4.45;;;;;;;19.62;56.85;95731.75;4992084;28;20231;-81
2022/06/15 05:56:44;;;;;;;6.93;4.63;;;;;;;19.77;56.70;95728.66;4992066;28;20228;-82
2022/06/15 05:59:11;;;;;;;5.47;3.78;;;;;;;19.88;55.76;95726.00;4991730;28;20231;-83
2022/06/15 06:01:38;;;;;;;4.05;3.60;;;;;;;19.83;55.15;95733.72;4991407;28;20207;-82
2022/06/15 06:04:08;;;;;;;4.00;3.40;;;;;;;19.80;54.93;95728.19;4991003;28;20297;-82
2022/06/15 06:06:35;;;;;;;4.88;3.58;;;;;;;19.87;54.81;95728.84;4991149;28;20219;-84
2022/06/15 06:09:01;;;;;;;5.47;4.63;;;;;;;19.91;54.63;95724.75;4991742;28;20210;-82
2022/06/15 06:11:28;;;;;;;11.10;8.07;;;;;;;19.93;54.69;95726.09;4990799;28;20269;-82
2022/06/15 06:13:55;;;;;;;3.78;3.35;;;;;;;20.02;55.94;95729.94;4991201;28;20266;-82
2022/06/15 06:16:22;;;;;;;4.75;3.63;;;;;;;20.10;55.94;95733.22;4991497;28;20219;-82
2022/06/15 06:18:50;;;;;;;3.67;3.38;;;;;;;20.12;54.88;95723.31;4991507;28;20219;-82
2022/06/15 06:21:16;;;;;;;4.07;3.70;;;;;;;20.30;55.26;95733.59;4994290;28;20750;-81
2022/06/15 06:23:43;;;;;;;4.72;3.65;;;;;;;20.42;55.00;95717.88;4997494;28;20912;-83
2022/06/15 06:26:18;;;;;;;4.05;3.63;;;;;;;20.58;56.21;95723.19;4997984;28;20199;-82
2022/06/15 06:28:45;;;;;;;5.25;3.55;;;;;;;20.65;54.28;95721.19;4998053;28;20199;-84
2022/06/15 06:31:12;;;;;;;5.97;4.00;;;;;;;20.70;54.51;95723.09;4997826;28;20195;-83
2022/06/15 06:33:39;;;;;;;4.40;3.40;;;;;;;20.76;53.48;95724.78;4997562;28;20711;-81
2022/06/15 06:36:09;;;;;;;4.05;3.30;;;;;;;20.80;53.55;95736.34;4998023;28;20231;-83
2022/06/15 06:38:36;;;;;;;4.22;3.47;;;;;;;20.83;53.33;95727.22;4997768;28;20223;-82
2022/06/15 06:41:03;;;;;;;4.10;3.20;;;;;;;20.82;53.49;95725.66;4997275;28;20203;-82
2022/06/15 06:43:29;;;;;;;4.22;3.40;;;;;;;20.85;53.59;95731.19;4997178;28;20235;-83
2022/06/15 06:45:56;;;;;;;4.05;3.05;;;;;;;20.80;53.22;95736.34;4997872;28;20203;-82
2022/06/15 06:48:24;;;;;;;4.45;3.15;;;;;;;20.90;54.02;95733.91;4997976;28;20223;-82
2022/06/15 06:50:52;;;;;;;4.78;3.40;;;;;;;20.88;53.23;95738.59;4997438;28;20579;-83
2022/06/15 06:53:19;;;;;;;6.18;3.45;;;;;;;20.96;53.10;95743.44;4997299;28;20769;-83
2022/06/15 06:55:45;;;;;;;6.28;5.03;;;;;;;20.94;53.40;95739.47;4998217;28;20269;-81
2022/06/15 06:58:12;;;;;;;5.80;3.22;;;;;;;20.97;53.15;95736.38;4998050;28;20281;-82
2022/06/15 07:00:38;;;;;;;5.25;4.75;;;;;;;21.11;53.40;95731.63;4997068;28;20215;-84
2022/06/15 07:03:06;;;;;;;5.50;4.20;;;;;;;21.26;52.91;95735.28;4997337;28;20301;-84
2022/06/15 07:05:35;;;;;;;3.85;3.10;;;;;;;21.28;52.54;95725.34;4998650;28;20286;-84
2022/06/15 07:08:02;;;;;;;7.63;3.50;;;;;;;21.33;52.56;95719.41;4997122;28;20231;-84
2022/06/15 07:10:28;;;;;;;7.60;3.60;;;;;;;21.39;52.78;95731.53;4997163;28;20664;-84
2022/06/15 07:12:55;;;;;;;4.90;3.35;;;;;;;21.49;52.53;95730.88;4998045;28;20242;-84
2022/06/15 07:15:22;;;;;;;4.10;3.38;;;;;;;21.65;53.15;95730.84;4997567;28;20200;-83
2022/06/15 07:17:48;;;;;;;3.80;3.20;;;;;;;21.74;53.26;95727.81;4997718;28;20262;-82
2022/06/15 07:20:15;;;;;;;3.45;3.00;;;;;;;21.77;52.28;95732.56;4996830;28;20273;-82
2022/06/15 07:22:42;;;;;;;3.95;3.20;;;;;;;21.77;51.35;95722.88;4996928;28;20277;-83
2022/06/15 07:25:10;;;;;;;3.20;2.88;;;;;;;21.88;51.93;95732.47;4997770;28;20748;-82
2022/06/15 07:27:39;;;;;;;3.97;3.13;;;;;;;22.01;52.17;95732.13;4997298;28;20254;-84
2022/06/15 07:30:08;;;;;;;3.88;3.33;;;;;;;22.10;50.82;95737.75;4997091;28;20227;-84
2022/06/15 07:32:35;;;;;;;3.78;2.95;;;;;;;22.18;51.08;95742.53;4994660;28;20266;-83
2022/06/15 07:35:03;;;;;;;6.22;3.40;;;;;;;22.23;50.96;95732.09;4994268;28;20638;-83
2022/06/15 07:37:29;;;;;;;3.53;2.80;;;;;;;22.25;50.11;95740.53;4994653;28;20227;-82
2022/06/15 07:39:57;;;;;;;5.63;3.22;;;;;;;22.34;50.09;95733.78;4994269;28;20282;-83
2022/06/15 07:42:23;;;;;;;5.38;3.00;;;;;;;22.43;50.12;95730.75;4993236;28;20243;-82
2022/06/15 07:44:50;;;;;;;8.25;2.88;;;;;;;22.47;50.29;95735.25;4993993;28;20226;-84
2022/06/15 07:50:01;;;;;;;4.93;3.50;;;;;;;22.77;48.72;95726.88;4993975;28;20277;-84
2022/06/15 07:52:32;;;;;;;4.70;3.35;;;;;;;22.85;47.71;95726.44;4993509;28;20314;-83
2022/06/15 07:55:00;;;;;;;5.40;2.90;;;;;;;22.94;47.99;95729.41;4993771;28;20230;-83
2022/06/15 07:57:27;;;;;;;3.40;3.10;;;;;;;23.00;49.02;95731.81;4994267;28;20314;-83
2022/06/15 07:59:53;;;;;;;3.40;3.10;;;;;;;23.13;47.67;95733.22;4993769;28;20630;-83
2022/06/15 08:02:20;;;;;;;3.58;2.97;;;;;;;23.34;47.84;95731.53;4992404;28;20231;-84
2022/06/15 08:04:47;;;;;;;3.60;3.17;;;;;;;23.37;47.10;95734.44;4994042;28;20227;-82
2022/06/15 08:07:16;;;;;;;3.17;2.88;;;;;;;23.48;47.34;95722.16;4993195;28;20235;-83
2022/06/15 08:09:43;;;;;;;5.63;3.45;;;;;;;23.66;47.41;95729.69;4993671;28;20254;-81
2022/06/15 08:12:12;;;;;;;3.80;3.00;;;;;;;23.73;47.37;95726.81;4992863;28;20231;-82
2022/06/15 08:14:42;;;;;;;4.68;3.22;;;;;;;23.79;47.03;95727.63;4993653;28;20274;-84
2022/06/15 08:17:12;;;;;;;4.82;3.47;;;;;;;23.83;47.01;95720.81;4994047;28;20305;-82
2022/06/15 08:19:43;;;;;;;4.75;3.17;;;;;;;23.77;46.88;95717.34;4993211;28;20258;-82
2022/06/15 08:22:11;;;;;;;6.55;5.88;;;;;;;23.85;46.62;95721.34;4992723;28;20722;-82
2022/06/15 08:24:38;;;;;;;4.43;3.55;;;;;;;23.97;46.76;95712.19;4993502;28;20200;-84
2022/06/15 08:27:05;;;;;;;4.03;3.47;;;;;;;24.10;47.63;95710.91;4993448;28;20247;-82
2022/06/15 08:29:38;;;;;;;3.88;3.15;;;;;;;24.21;47.79;95712.53;4993682;28;20211;-83
2022/06/15 08:32:05;;;;;;;3.63;3.20;;;;;;;24.31;47.29;95709.94;4992632;28;20196;-82
2022/06/15 08:34:33;;;;;;;3.90;3.30;;;;;;;24.44;45.97;95719.19;4993373;28;20207;-83
2022/06/15 08:36:59;;;;;;;3.42;3.10;;;;;;;24.58;46.98;95714.22;4993449;28;20224;-82
2022/06/15 08:39:26;;;;;;;4.88;3.35;;;;;;;24.70;46.09;95720.03;4993727;28;20227;-84
2022/06/15 08:42:01;;;;;;;5.45;3.30;;;;;;;24.76;45.78;95713.72;4992262;28;20688;-83
2022/06/15 08:44:38;;;;;;;3.35;3.05;;;;;;;24.99;45.51;95715.88;4992110;28;20210;-83
2022/06/15 08:47:17;;;;;;;4.80;3.20;;;;;;;25.13;45.86;95714.28;4992794;28;20227;-82
2022/06/15 08:49:54;;;;;;;4.38;3.28;;;;;;;25.33;46.64;95704.75;4993375;28;20199;-82
2022/06/15 08:52:34;;;;;;;3.58;3.28;;;;;;;25.29;45.89;95707.13;4992009;28;20257;-83
2022/06/15 08:55:07;;;;;;;3.30;3.00;;;;;;;25.37;45.39;95705.81;4993128;28;20207;-84
2022/06/15 08:57:42;;;;;;;4.05;3.50;;;;;;;25.60;45.98;95707.06;4993231;28;20274;-82
2022/06/15 09:00:15;;;;;;;3.65;3.35;;;;;;;25.81;45.02;95711.25;4992147;28;20227;-83
2022/06/15 09:02:51;;;;;;;6.00;3.72;;;;;;;25.91;44.41;95713.06;4992008;28;20235;-84
2022/06/15 09:05:26;;;;;;;4.35;3.40;;;;;;;26.00;43.48;95719.34;4973469;28;20258;-83
2022/06/15 09:08:15;;;;;;;5.05;3.85;;;;;;;26.12;44.52;95711.94;4972898;28;20322;-83
2022/06/15 09:10:50;;;;;;;8.13;7.32;;;;;;;26.34;44.13;95714.22;4972086;28;20200;-84
2022/06/15 09:13:48;;;;;;;7.70;4.00;;;;;;;26.37;42.62;95714.44;4972461;28;20310;-83
2022/06/15 09:16:27;;;;;;;4.50;3.75;;;;;;;26.35;43.11;95705.25;4972732;28;20231;-82
2022/06/15 09:18:57;;;;;;;4.65;3.20;;;;;;;26.32;43.15;95711.88;4973047;28;20204;-82
2022/06/15 09:21:30;;;;;;;3.80;3.40;;;;;;;26.47;42.78;95703.06;4972249;28;20204;-82
2022/06/15 09:24:02;;;;;;;4.55;3.30;;;;;;;26.55;42.34;95705.13;4972431;28;20227;-83
2022/06/15 09:26:33;;;;;;;4.15;3.72;;;;;;;26.68;42.34;95706.34;4972834;28;20872;-82
2022/06/15 09:29:04;;;;;;;5.95;3.63;;;;;;;26.66;43.36;95705.84;4972643;28;20263;-84
2022/06/15 09:31:40;;;;;;;5.10;3.40;;;;;;;26.80;41.70;95699.66;4985768;28;20199;-83
2022/06/15 09:34:09;;;;;;;5.88;3.50;;;;;;;26.95;42.10;95704.06;4992030;28;20313;-83
2022/06/15 09:36:46;;;;;;;4.63;3.50;;;;;;;27.06;42.09;95697.63;4993171;28;20734;-83
2022/06/15 09:39:13;;;;;;;5.88;3.78;;;;;;;27.26;42.58;95699.31;4992644;28;20203;-84
2022/06/15 09:41:48;;;;;;;3.85;3.13;;;;;;;27.31;40.78;95696.63;4992411;28;20200;-84
2022/06/15 09:44:27;;;;;;;4.35;2.90;;;;;;;27.24;41.05;95700.66;5011988;28;20214;-83
2022/06/15 09:47:04;;;;;;;6.20;3.50;;;;;;;27.33;40.61;95702.38;5012344;28;20638;-83
2022/06/15 09:49:41;;;;;;;5.85;3.35;;;;;;;27.44;41.61;95703.09;5012226;28;20209;-84
2022/06/15 09:52:15;;;;;;;4.05;3.42;;;;;;;27.49;39.81;95703.06;5010321;28;20313;-81
2022/06/15 09:54:53;;;;;;;4.95;3.08;;;;;;;27.58;39.86;95701.38;5011512;28;20186;-83
2022/06/15 09:57:21;;;;;;;3.45;2.80;;;;;;;27.55;38.98;95696.63;5011248;28;20218;-82
2022/06/15 09:59:48;;;;;;;3.83;2.88;;;;;;;27.48;39.17;95701.47;5011078;28;20227;-81
2022/06/15 10:02:23;;;;;;;3.03;2.72;;;;;;;27.63;39.72;95706.63;5009829;28;20292;-84
2022/06/15 10:04:49;;;;;;;5.47;3.10;;;;;;;27.67;39.54;95706.84;5010406;28;20650;-83
2022/06/15 10:07:26;;;;;;;3.42;3.13;;;;;;;27.89;39.32;95701.84;5010812;28;20314;-83
2022/06/15 10:09:56;;;;;;;6.25;4.40;;;;;;;28.10;40.21;95699.72;5011213;28;20289;-83
2022/06/15 10:12:58;;;;;;;6.40;3.30;;;;;;;28.23;40.23;95707.00;5010090;28;20231;-81
2022/06/15 10:15:36;;;;;;;3.45;2.75;;;;;;;28.45;38.98;95704.59;5010691;28;20706;-84
2022/06/15 10:18:21;;;;;;;3.40;3.20;;;;;;;28.50;38.64;95701.06;5011381;28;20226;-84
2022/06/15 10:21:00;;;;;;;3.38;3.08;;;;;;;28.42;38.24;95705.16;5010241;28;20698;-83
2022/06/15 10:23:35;;;;;;;5.10;3.17;;;;;;;28.66;39.32;95697.13;5010326;28;20313;-84
2022/06/15 10:26:02;;;;;;;3.70;3.30;;;;;;;28.83;38.50;95700.06;5011413;28;20207;-84
2022/06/15 10:28:41;;;;;;;4.63;3.50;;;;;;;28.99;38.47;95700.63;5009544;28;20234;-81
2022/06/15 10:31:13;;;;;;;9.13;8.32;;;;;;;29.05;38.48;95696.81;5008155;28;20187;-83
2022/06/15 10:33:44;;;;;;;10.38;9.25;;;;;;;29.23;37.77;95686.44;5010134;28;20234;-83
2022/06/15 10:36:22;;;;;;;5.80;4.00;;;;;;;29.21;37.42;95684.88;5003933;28;20210;-83
2022/06/15 10:38:53;;;;;;;3.97;3.28;;;;;;;29.01;37.49;95685.22;5005150;28;20289;-83
2022/06/15 10:44:02;;;;;;;3.90;3.28;;;;;;;29.26;37.93;95685.84;4978913;28;20227;-83
2022/06/15 10:46:49;;;;;;;3.28;3.05;;;;;;;29.46;37.64;95677.53;4999199;28;20227;-83
2022/06/15 10:49:17;;;;;;;3.15;2.95;;;;;;;29.51;37.69;95685.41;4992049;28;20210;-82
2022/06/15 10:51:44;;;;;;;3.97;2.80;;;;;;;29.60;36.85;95674.91;5000489;28;20207;-81
2022/06/15 10:54:24;;;;;;;3.85;3.17;;;;;;;29.45;36.85;95671.44;4990993;28;20227;-84
2022/06/15 11:02:30;;;;;;;3.28;2.97;;;;;;;29.82;35.88;95675.81;5005345;28;20237;-82
2022/06/15 11:05:04;;;;;;;4.90;3.13;;;;;;;29.87;36.39;95673.03;5012020;28;20269;-83
2022/06/15 11:07:35;;;;;;;4.97;3.40;;;;;;;29.75;35.09;95664.78;4997667;28;20714;-82
2022/06/15 11:10:14;;;;;;;3.63;2.92;;;;;;;29.90;36.63;95661.81;5009084;28;20218;-83
2022/06/15 11:12:44;;;;;;;3.67;3.38;;;;;;;30.13;36.06;95668.00;5009020;28;20337;-84
2022/06/15 11:18:01;;;;;;;5.07;3.28;;;;;;;30.16;34.18;95663.97;5008811;28;20209;-84
2022/06/15 11:18:31;;;;;;;6.57;3.22;;;;;;;30.08;35.19;95670.75;5010257;28;20268;-83
2022/06/15 11:21:04;;;;;;;3.47;3.10;;;;;;;30.17;34.31;95673.50;5012158;28;20222;-83
2022/06/15 11:23:43;;;;;;;7.45;4.85;;;;;;;30.16;34.72;95661.31;5011830;28;20238;-82
2022/06/15 11:29:09;;;;;;;3.80;3.50;;;;;;;30.14;34.56;95655.50;5012790;28;20201;-83
2022/06/15 11:31:38;;;;;;;6.00;3.55;;;;;;;30.16;35.41;95658.66;5011578;28;20191;-84
2022/06/15 11:34:10;;;;;;;2.80;2.60;;;;;;;30.20;35.29;95657.78;5010908;28;20257;-83
2022/06/15 11:36:46;;;;;;;4.20;3.83;;;;;;;30.17;35.28;95654.91;5008444;28;20218;-81
2022/06/15 11:39:18;;;;;;;3.90;3.60;;;;;;;30.26;35.32;95660.28;5010441;28;20260;-83
2022/06/15 11:41:50;;;;;;;3.58;3.28;;;;;;;30.22;35.42;95652.91;5011789;28;20596;-83
2022/06/15 11:44:19;;;;;;;3.38;2.58;;;;;;;30.34;34.85;95662.25;5010993;28;20227;-83
2022/06/15 11:47:02;;;;;;;5.30;3.03;;;;;;;30.36;34.30;95660.09;5007038;28;20782;-83
2022/06/15 11:49:38;;;;;;;3.97;3.55;;;;;;;30.30;33.93;95661.28;5012191;28;20202;-82
2022/06/15 11:52:20;;;;;;;2.78;2.58;;;;;;;30.31;34.94;95646.91;5008762;28;20221;-83
2022/06/15 11:55:10;;;;;;;4.00;3.00;;;;;;;30.60;35.12;95651.88;5008381;28;20244;-84
2022/06/15 11:57:46;;;;;;;3.00;2.80;;;;;;;30.70;35.58;95651.63;5011645;28;20610;-83
2022/06/15 12:00:20;;;;;;;2.85;2.38;;;;;;;30.82;35.48;95642.00;5008959;28;20226;-82
2022/06/15 12:03:02;;;;;;;3.88;2.75;;;;;;;30.97;33.93;95640.84;5008377;28;20793;-83